sensor_id;sensor_type;location;lat;lon;timestamp;P1;durP1;ratioP1;P2;durP2;ratioP2
19161;SDS011;9713;48.140;11.530;2023-07-20T00:03:10;4.55;;;2.20;;
19161;SDS011;9713;48.140;11.530;2023-07-20T00:06:54;7.15;;;2.20;;
19161;SDS011;9713;48.140;11.530;2023-07-20T00:10:37;4.80;;;2.35;;
19161;SDS011;9713;48.140;11.530;2023-07-20T00:14:21;4.40;;;2.40;;
19161;SDS011;9713;48.140;11.530;2023-07-20T00:18:07;5.50;;;2.38;;
19161;SDS011;9713;48.140;11.530;2023-07-20T00:21:50;7.30;;;2.60;;
19161;SDS011;9713;48.140;11.530;2023-07-20T00:25:33;5.45;;;2.42;;
19161;SDS011;9713;48.140;11.530;2023-07-20T00:29:16;6.57;;;2.30;;
19161;SDS011;9713;48.140;11.530;2023-07-20T00:33:03;7.22;;;2.38;;
19161;SDS011;9713;48.140;11.530;2023-07-20T00:36:46;5.15;;;2.30;;
19161;SDS011;9713;48.140;11.530;2023-07-20T00:40:35;4.30;;;2.25;;
19161;SDS011;9713;48.140;11.530;2023-07-20T00:44:18;9.93;;;2.15;;
19161;SDS011;9713;48.140;11.530;2023-07-20T00:48:05;4.53;;;2.20;;
19161;SDS011;9713;48.140;11.530;2023-07-20T00:51:49;6.97;;;2.53;;
19161;SDS011;9713;48.140;11.530;2023-07-20T00:55:32;5.50;;;2.42;;
19161;SDS011;9713;48.140;11.530;2023-07-20T00:59:15;3.75;;;2.28;;
19161;SDS011;9713;48.140;11.530;2023-07-20T01:02:58;5.65;;;2.28;;
19161;SDS011;9713;48.140;11.530;2023-07-20T01:06:45;5.40;;;2.10;;
19161;SDS011;9713;48.140;11.530;2023-07-20T01:10:33;4.18;;;2.42;;
19161;SDS011;9713;48.140;11.530;2023-07-20T01:14:21;4.82;;;2.20;;
19161;SDS011;9713;48.140;11.530;2023-07-20T01:18:04;5.53;;;2.35;;
19161;SDS011;9713;48.140;11.530;2023-07-20T01:21:51;4.97;;;2.20;;
19161;SDS011;9713;48.140;11.530;2023-07-20T01:25:45;6.80;;;2.33;;
19161;SDS011;9713;48.140;11.530;2023-07-20T01:29:43;3.50;;;2.42;;
19161;SDS011;9713;48.140;11.530;2023-07-20T01:33:38;4.00;;;2.08;;
19161;SDS011;9713;48.140;11.530;2023-07-20T01:37:23;8.05;;;2.00;;
19161;SDS011;9713;48.140;11.530;2023-07-20T01:41:09;3.13;;;2.17;;
19161;SDS011;9713;48.140;11.530;2023-07-20T01:44:52;4.45;;;2.33;;
19161;SDS011;9713;48.140;11.530;2023-07-20T01:48:35;6.15;;;2.40;;
19161;SDS011;9713;48.140;11.530;2023-07-20T01:52:19;8.20;;;2.70;;
19161;SDS011;9713;48.140;11.530;2023-07-20T01:56:03;3.80;;;2.20;;
19161;SDS011;9713;48.140;11.530;2023-07-20T01:59:45;7.80;;;2.28;;
19161;SDS011;9713;48.140;11.530;2023-07-20T02:03:28;11.15;;;2.00;;
19161;SDS011;9713;48.140;11.530;2023-07-20T02:07:11;3.67;;;1.90;;
19161;SDS011;9713;48.140;11.530;2023-07-20T02:10:56;4.03;;;2.08;;
19161;SDS011;9713;48.140;11.530;2023-07-20T02:14:38;6.60;;;1.98;;
19161;SDS011;9713;48.140;11.530;2023-07-20T02:18:21;5.25;;;1.90;;
19161;SDS011;9713;48.140;11.530;2023-07-20T02:22:04;10.75;;;2.08;;
19161;SDS011;9713;48.140;11.530;2023-07-20T02:25:47;7.28;;;1.67;;
19161;SDS011;9713;48.140;11.530;2023-07-20T02:29:34;4.25;;;1.73;;
19161;SDS011;9713;48.140;11.530;2023-07-20T02:33:18;5.07;;;2.10;;
19161;SDS011;9713;48.140;11.530;2023-07-20T02:37:02;6.63;;;1.75;;
19161;SDS011;9713;48.140;11.530;2023-07-20T02:40:45;3.38;;;1.70;;
19161;SDS011;9713;48.140;11.530;2023-07-20T02:44:28;6.32;;;1.83;;
19161;SDS011;9713;48.140;11.530;2023-07-20T02:48:12;5.47;;;1.65;;
19161;SDS011;9713;48.140;11.530;2023-07-20T02:51:55;4.72;;;1.75;;
19161;SDS011;9713;48.140;11.530;2023-07-20T02:55:38;4.45;;;1.67;;
19161;SDS011;9713;48.140;11.530;2023-07-20T02:59:21;3.80;;;1.70;;
19161;SDS011;9713;48.140;11.530;2023-07-20T03:03:04;3.55;;;1.40;;
19161;SDS011;9713;48.140;11.530;2023-07-20T03:06:52;6.38;;;1.63;;
19161;SDS011;9713;48.140;11.530;2023-07-20T03:10:38;3.78;;;1.50;;
19161;SDS011;9713;48.140;11.530;2023-07-20T03:14:21;6.10;;;1.80;;
19161;SDS011;9713;48.140;11.530;2023-07-20T03:18:05;3.17;;;1.70;;
19161;SDS011;9713;48.140;11.530;2023-07-20T03:21:48;3.33;;;1.80;;
19161;SDS011;9713;48.140;11.530;2023-07-20T03:25:32;2.88;;;1.75;;
19161;SDS011;9713;48.140;11.530;2023-07-20T03:29:15;4.13;;;1.55;;
19161;SDS011;9713;48.140;11.530;2023-07-20T03:32:58;4.45;;;1.52;;
19161;SDS011;9713;48.140;11.530;2023-07-20T03:36:41;5.65;;;1.80;;
19161;SDS011;9713;48.140;11.530;2023-07-20T03:40:23;8.00;;;1.98;;
19161;SDS011;9713;48.140;11.530;2023-07-20T03:44:07;5.30;;;1.90;;
19161;SDS011;9713;48.140;11.530;2023-07-20T03:47:50;5.43;;;1.80;;
19161;SDS011;9713;48.140;11.530;2023-07-20T03:51:33;6.22;;;1.92;;
19161;SDS011;9713;48.140;11.530;2023-07-20T03:55:16;5.18;;;1.58;;
19161;SDS011;9713;48.140;11.530;2023-07-20T03:58:59;3.85;;;1.55;;
19161;SDS011;9713;48.140;11.530;2023-07-20T04:02:43;4.07;;;2.05;;
19161;SDS011;9713;48.140;11.530;2023-07-20T04:06:26;3.72;;;2.30;;
19161;SDS011;9713;48.140;11.530;2023-07-20T04:10:09;2.60;;;1.67;;
19161;SDS011;9713;48.140;11.530;2023-07-20T04:13:52;3.17;;;1.80;;
19161;SDS011;9713;48.140;11.530;2023-07-20T04:17:37;3.80;;;1.60;;
19161;SDS011;9713;48.140;11.530;2023-07-20T04:21:22;3.15;;;1.90;;
19161;SDS011;9713;48.140;11.530;2023-07-20T04:25:05;4.25;;;1.88;;
19161;SDS011;9713;48.140;11.530;2023-07-20T04:28:48;4.03;;;1.83;;
19161;SDS011;9713;48.140;11.530;2023-07-20T04:32:32;4.88;;;1.88;;
19161;SDS011;9713;48.140;11.530;2023-07-20T04:36:17;4.22;;;1.90;;
19161;SDS011;9713;48.140;11.530;2023-07-20T04:40:03;5.68;;;1.90;;
19161;SDS011;9713;48.140;11.530;2023-07-20T04:43:48;4.50;;;1.90;;
19161;SDS011;9713;48.140;11.530;2023-07-20T04:47:31;3.53;;;2.13;;
19161;SDS011;9713;48.140;11.530;2023-07-20T04:51:14;3.25;;;2.17;;
19161;SDS011;9713;48.140;11.530;2023-07-20T04:54:58;5.13;;;2.00;;
19161;SDS011;9713;48.140;11.530;2023-07-20T04:58:42;5.43;;;2.20;;
19161;SDS011;9713;48.140;11.530;2023-07-20T05:02:26;8.50;;;2.28;;
19161;SDS011;9713;48.140;11.530;2023-07-20T05:06:09;7.53;;;2.88;;
19161;SDS011;9713;48.140;11.530;2023-07-20T05:09:52;13.50;;;5.97;;
19161;SDS011;9713;48.140;11.530;2023-07-20T05:13:35;6.70;;;2.65;;
19161;SDS011;9713;48.140;11.530;2023-07-20T05:17:19;4.80;;;2.10;;
19161;SDS011;9713;48.140;11.530;2023-07-20T05:21:02;4.43;;;2.55;;
19161;SDS011;9713;48.140;11.530;2023-07-20T05:24:45;9.10;;;3.17;;
19161;SDS011;9713;48.140;11.530;2023-07-20T05:28:28;10.07;;;3.97;;
19161;SDS011;9713;48.140;11.530;2023-07-20T05:32:11;11.90;;;4.03;;
19161;SDS011;9713;48.140;11.530;2023-07-20T05:35:56;6.22;;;2.60;;
19161;SDS011;9713;48.140;11.530;2023-07-20T05:39:39;5.28;;;2.30;;
19161;SDS011;9713;48.140;11.530;2023-07-20T05:43:22;6.18;;;2.47;;
19161;SDS011;9713;48.140;11.530;2023-07-20T05:47:05;4.13;;;2.33;;
19161;SDS011;9713;48.140;11.530;2023-07-20T05:50:51;4.18;;;2.05;;
19161;SDS011;9713;48.140;11.530;2023-07-20T05:54:35;6.22;;;2.38;;
19161;SDS011;9713;48.140;11.530;2023-07-20T05:58:18;6.10;;;2.20;;
19161;SDS011;9713;48.140;11.530;2023-07-20T06:02:01;4.97;;;2.13;;
19161;SDS011;9713;48.140;11.530;2023-07-20T06:05:44;4.47;;;2.50;;
19161;SDS011;9713;48.140;11.530;2023-07-20T06:09:27;2.58;;;1.75;;
19161;SDS011;9713;48.140;11.530;2023-07-20T06:13:12;5.20;;;2.30;;
19161;SDS011;9713;48.140;11.530;2023-07-20T06:17:05;5.95;;;2.35;;
19161;SDS011;9713;48.140;11.530;2023-07-20T06:20:48;9.45;;;2.10;;
19161;SDS011;9713;48.140;11.530;2023-07-20T06:24:32;5.32;;;2.25;;
19161;SDS011;9713;48.140;11.530;2023-07-20T06:28:16;7.53;;;3.45;;
19161;SDS011;9713;48.140;11.530;2023-07-20T06:32:00;6.72;;;2.72;;
19161;SDS011;9713;48.140;11.530;2023-07-20T06:35:43;5.03;;;2.47;;
19161;SDS011;9713;48.140;11.530;2023-07-20T06:39:25;2.72;;;2.00;;
19161;SDS011;9713;48.140;11.530;2023-07-20T06:43:11;3.67;;;2.00;;
19161;SDS011;9713;48.140;11.530;2023-07-20T06:46:58;4.45;;;1.95;;
19161;SDS011;9713;48.140;11.530;2023-07-20T06:50:42;2.95;;;2.00;;
19161;SDS011;9713;48.140;11.530;2023-07-20T06:54:27;5.32;;;2.20;;
19161;SDS011;9713;48.140;11.530;2023-07-20T06:58:16;5.25;;;2.20;;
19161;SDS011;9713;48.140;11.530;2023-07-20T07:02:00;5.70;;;2.10;;
19161;SDS011;9713;48.140;11.530;2023-07-20T07:05:43;5.25;;;2.28;;
19161;SDS011;9713;48.140;11.530;2023-07-20T07:09:31;2.80;;;1.95;;
19161;SDS011;9713;48.140;11.530;2023-07-20T07:13:14;6.03;;;2.08;;
19161;SDS011;9713;48.140;11.530;2023-07-20T07:16:58;4.10;;;1.98;;
19161;SDS011;9713;48.140;11.530;2023-07-20T07:20:53;3.38;;;1.85;;
19161;SDS011;9713;48.140;11.530;2023-07-20T07:24:35;3.38;;;1.95;;
19161;SDS011;9713;48.140;11.530;2023-07-20T07:28:18;5.97;;;1.98;;
19161;SDS011;9713;48.140;11.530;2023-07-20T07:32:01;3.17;;;1.70;;
19161;SDS011;9713;48.140;11.530;2023-07-20T07:35:44;4.28;;;2.00;;
19161;SDS011;9713;48.140;11.530;2023-07-20T07:39:28;6.32;;;2.10;;
19161;SDS011;9713;48.140;11.530;2023-07-20T07:43:16;3.33;;;2.08;;
19161;SDS011;9713;48.140;11.530;2023-07-20T07:46:58;3.70;;;1.80;;
19161;SDS011;9713;48.140;11.530;2023-07-20T07:50:41;4.28;;;1.90;;
19161;SDS011;9713;48.140;11.530;2023-07-20T07:54:24;11.25;;;2.00;;
19161;SDS011;9713;48.140;11.530;2023-07-20T07:58:09;3.53;;;1.90;;
19161;SDS011;9713;48.140;11.530;2023-07-20T08:01:52;4.15;;;2.13;;
19161;SDS011;9713;48.140;11.530;2023-07-20T08:05:34;4.72;;;2.17;;
19161;SDS011;9713;48.140;11.530;2023-07-20T08:09:17;3.45;;;2.20;;
19161;SDS011;9713;48.140;11.530;2023-07-20T08:13:00;4.60;;;1.90;;
19161;SDS011;9713;48.140;11.530;2023-07-20T08:16:45;3.78;;;1.92;;
19161;SDS011;9713;48.140;11.530;2023-07-20T08:20:29;10.60;;;2.40;;
19161;SDS011;9713;48.140;11.530;2023-07-20T08:24:13;4.05;;;2.17;;
19161;SDS011;9713;48.140;11.530;2023-07-20T08:27:58;4.22;;;1.88;;
19161;SDS011;9713;48.140;11.530;2023-07-20T08:31:42;4.90;;;2.53;;
19161;SDS011;9713;48.140;11.530;2023-07-20T08:35:26;2.95;;;2.20;;
19161;SDS011;9713;48.140;11.530;2023-07-20T08:39:09;4.82;;;2.15;;
19161;SDS011;9713;48.140;11.530;2023-07-20T08:42:52;3.45;;;1.90;;
19161;SDS011;9713;48.140;11.530;2023-07-20T08:46:36;3.25;;;2.20;;
19161;SDS011;9713;48.140;11.530;2023-07-20T08:50:20;2.70;;;2.00;;
19161;SDS011;9713;48.140;11.530;2023-07-20T08:54:05;7.25;;;2.47;;
19161;SDS011;9713;48.140;11.530;2023-07-20T08:57:49;3.95;;;2.03;;
19161;SDS011;9713;48.140;11.530;2023-07-20T09:01:33;3.70;;;1.80;;
19161;SDS011;9713;48.140;11.530;2023-07-20T09:05:17;6.47;;;2.00;;
19161;SDS011;9713;48.140;11.530;2023-07-20T09:09:06;3.95;;;2.17;;
19161;SDS011;9713;48.140;11.530;2023-07-20T09:12:49;6.75;;;2.25;;
19161;SDS011;9713;48.140;11.530;2023-07-20T09:16:32;4.28;;;2.28;;
19161;SDS011;9713;48.140;11.530;2023-07-20T09:20:15;4.88;;;2.00;;
19161;SDS011;9713;48.140;11.530;2023-07-20T09:24:03;3.05;;;2.10;;
19161;SDS011;9713;48.140;11.530;2023-07-20T09:27:50;5.93;;;1.95;;
19161;SDS011;9713;48.140;11.530;2023-07-20T09:31:33;4.18;;;1.80;;
19161;SDS011;9713;48.140;11.530;2023-07-20T09:35:19;4.00;;;2.42;;
19161;SDS011;9713;48.140;11.530;2023-07-20T09:39:05;5.78;;;2.20;;
19161;SDS011;9713;48.140;11.530;2023-07-20T09:42:50;4.93;;;2.20;;
19161;SDS011;9713;48.140;11.530;2023-07-20T09:46:44;3.15;;;2.08;;
19161;SDS011;9713;48.140;11.530;2023-07-20T09:50:30;3.38;;;2.10;;
19161;SDS011;9713;48.140;11.530;2023-07-20T09:54:14;4.18;;;2.42;;
19161;SDS011;9713;48.140;11.530;2023-07-20T09:57:57;4.03;;;2.13;;
19161;SDS011;9713;48.140;11.530;2023-07-20T10:01:41;5.10;;;2.28;;
19161;SDS011;9713;48.140;11.530;2023-07-20T10:05:25;2.97;;;1.98;;
19161;SDS011;9713;48.140;11.530;2023-07-20T10:09:12;4.38;;;2.30;;
19161;SDS011;9713;48.140;11.530;2023-07-20T10:12:58;5.47;;;2.30;;
19161;SDS011;9713;48.140;11.530;2023-07-20T10:16:49;3.78;;;2.40;;
19161;SDS011;9713;48.140;11.530;2023-07-20T10:20:33;8.68;;;2.30;;
19161;SDS011;9713;48.140;11.530;2023-07-20T10:24:20;4.10;;;2.08;;
19161;SDS011;9713;48.140;11.530;2023-07-20T10:28:03;4.57;;;2.45;;
19161;SDS011;9713;48.140;11.530;2023-07-20T10:31:47;5.03;;;2.20;;
19161;SDS011;9713;48.140;11.530;2023-07-20T10:35:31;3.53;;;1.95;;
19161;SDS011;9713;48.140;11.530;2023-07-20T10:39:34;5.93;;;2.30;;
19161;SDS011;9713;48.140;11.530;2023-07-20T10:43:17;4.38;;;2.60;;
19161;SDS011;9713;48.140;11.530;2023-07-20T10:47:06;3.63;;;2.50;;
19161;SDS011;9713;48.140;11.530;2023-07-20T10:51:09;4.65;;;2.20;;
19161;SDS011;9713;48.140;11.530;2023-07-20T10:54:59;3.13;;;2.10;;
19161;SDS011;9713;48.140;11.530;2023-07-20T10:58:55;3.95;;;2.13;;
19161;SDS011;9713;48.140;11.530;2023-07-20T11:02:42;6.43;;;3.78;;
19161;SDS011;9713;48.140;11.530;2023-07-20T11:06:33;3.90;;;2.08;;
19161;SDS011;9713;48.140;11.530;2023-07-20T11:10:17;6.30;;;2.47;;
19161;SDS011;9713;48.140;11.530;2023-07-20T11:14:01;4.70;;;2.20;;
19161;SDS011;9713;48.140;11.530;2023-07-20T11:17:44;6.45;;;2.20;;
19161;SDS011;9713;48.140;11.530;2023-07-20T11:21:27;3.88;;;2.08;;
19161;SDS011;9713;48.140;11.530;2023-07-20T11:25:10;5.82;;;2.20;;
19161;SDS011;9713;48.140;11.530;2023-07-20T11:28:55;3.97;;;1.95;;
19161;SDS011;9713;48.140;11.530;2023-07-20T11:32:45;3.47;;;1.98;;
19161;SDS011;9713;48.140;11.530;2023-07-20T11:36:30;4.95;;;2.15;;
19161;SDS011;9713;48.140;11.530;2023-07-20T11:40:16;3.95;;;1.92;;
19161;SDS011;9713;48.140;11.530;2023-07-20T11:44:00;4.50;;;2.42;;
19161;SDS011;9713;48.140;11.530;2023-07-20T11:47:43;5.30;;;2.22;;
19161;SDS011;9713;48.140;11.530;2023-07-20T11:51:29;3.15;;;1.90;;
19161;SDS011;9713;48.140;11.530;2023-07-20T11:55:12;3.58;;;1.73;;
19161;SDS011;9713;48.140;11.530;2023-07-20T11:58:55;2.92;;;1.85;;
19161;SDS011;9713;48.140;11.530;2023-07-20T12:02:42;3.75;;;1.50;;
19161;SDS011;9713;48.140;11.530;2023-07-20T12:06:25;3.50;;;2.03;;
19161;SDS011;9713;48.140;11.530;2023-07-20T12:10:11;3.35;;;2.25;;
19161;SDS011;9713;48.140;11.530;2023-07-20T12:13:57;3.33;;;1.70;;
19161;SDS011;9713;48.140;11.530;2023-07-20T12:18:06;2.67;;;1.92;;
19161;SDS011;9713;48.140;11.530;2023-07-20T12:21:48;2.58;;;1.90;;
19161;SDS011;9713;48.140;11.530;2023-07-20T12:25:36;3.47;;;2.40;;
19161;SDS011;9713;48.140;11.530;2023-07-20T12:29:20;3.15;;;1.92;;
19161;SDS011;9713;48.140;11.530;2023-07-20T12:33:03;3.80;;;1.98;;
19161;SDS011;9713;48.140;11.530;2023-07-20T12:36:47;2.40;;;1.90;;
19161;SDS011;9713;48.140;11.530;2023-07-20T12:40:30;4.38;;;2.17;;
19161;SDS011;9713;48.140;11.530;2023-07-20T12:44:13;4.90;;;3.17;;
19161;SDS011;9713;48.140;11.530;2023-07-20T12:47:56;3.05;;;2.00;;
19161;SDS011;9713;48.140;11.530;2023-07-20T12:51:38;2.47;;;1.77;;
19161;SDS011;9713;48.140;11.530;2023-07-20T12:55:23;2.28;;;1.77;;
19161;SDS011;9713;48.140;11.530;2023-07-20T12:59:05;3.63;;;2.58;;
19161;SDS011;9713;48.140;11.530;2023-07-20T13:02:48;2.70;;;1.85;;
19161;SDS011;9713;48.140;11.530;2023-07-20T13:06:47;2.22;;;2.00;;
19161;SDS011;9713;48.140;11.530;2023-07-20T13:10:32;3.13;;;1.70;;
19161;SDS011;9713;48.140;11.530;2023-07-20T13:14:14;5.05;;;2.10;;
19161;SDS011;9713;48.140;11.530;2023-07-20T13:17:57;2.20;;;1.52;;
19161;SDS011;9713;48.140;11.530;2023-07-20T13:21:41;4.72;;;1.80;;
19161;SDS011;9713;48.140;11.530;2023-07-20T13:25:24;2.33;;;1.80;;
19161;SDS011;9713;48.140;11.530;2023-07-20T13:29:08;2.88;;;1.52;;
19161;SDS011;9713;48.140;11.530;2023-07-20T13:32:51;4.32;;;1.80;;
19161;SDS011;9713;48.140;11.530;2023-07-20T13:36:35;3.03;;;1.70;;
19161;SDS011;9713;48.140;11.530;2023-07-20T13:40:18;4.00;;;1.90;;
19161;SDS011;9713;48.140;11.530;2023-07-20T13:44:01;2.33;;;1.60;;
19161;SDS011;9713;48.140;11.530;2023-07-20T13:47:48;3.13;;;1.30;;
19161;SDS011;9713;48.140;11.530;2023-07-20T13:51:31;2.75;;;1.60;;
19161;SDS011;9713;48.140;11.530;2023-07-20T13:55:15;5.75;;;1.70;;
19161;SDS011;9713;48.140;11.530;2023-07-20T13:59:18;7.65;;;1.58;;
19161;SDS011;9713;48.140;11.530;2023-07-20T14:03:02;4.13;;;1.55;;
19161;SDS011;9713;48.140;11.530;2023-07-20T14:06:48;4.88;;;2.00;;
19161;SDS011;9713;48.140;11.530;2023-07-20T14:10:32;2.70;;;1.50;;
19161;SDS011;9713;48.140;11.530;2023-07-20T14:14:35;5.57;;;1.50;;
19161;SDS011;9713;48.140;11.530;2023-07-20T14:18:19;3.22;;;1.60;;
19161;SDS011;9713;48.140;11.530;2023-07-20T14:22:02;3.58;;;1.50;;
19161;SDS011;9713;48.140;11.530;2023-07-20T14:25:45;2.88;;;1.60;;
19161;SDS011;9713;48.140;11.530;2023-07-20T14:29:29;4.57;;;1.80;;
19161;SDS011;9713;48.140;11.530;2023-07-20T14:33:13;2.88;;;1.42;;
19161;SDS011;9713;48.140;11.530;2023-07-20T14:36:58;4.45;;;1.60;;
19161;SDS011;9713;48.140;11.530;2023-07-20T14:40:41;3.92;;;1.50;;
19161;SDS011;9713;48.140;11.530;2023-07-20T14:44:24;3.95;;;1.83;;
19161;SDS011;9713;48.140;11.530;2023-07-20T14:48:07;4.50;;;1.60;;
19161;SDS011;9713;48.140;11.530;2023-07-20T14:51:49;5.93;;;1.80;;
19161;SDS011;9713;48.140;11.530;2023-07-20T14:55:35;2.40;;;1.60;;
19161;SDS011;9713;48.140;11.530;2023-07-20T14:59:18;4.63;;;1.50;;
19161;SDS011;9713;48.140;11.530;2023-07-20T15:03:01;3.22;;;1.65;;
19161;SDS011;9713;48.140;11.530;2023-07-20T15:06:44;4.97;;;2.38;;
19161;SDS011;9713;48.140;11.530;2023-07-20T15:10:27;4.72;;;2.35;;
19161;SDS011;9713;48.140;11.530;2023-07-20T15:14:12;3.63;;;1.92;;
19161;SDS011;9713;48.140;11.530;2023-07-20T15:17:55;3.17;;;2.25;;
19161;SDS011;9713;48.140;11.530;2023-07-20T15:21:37;4.95;;;1.60;;
19161;SDS011;9713;48.140;11.530;2023-07-20T15:25:20;1.90;;;1.70;;
19161;SDS011;9713;48.140;11.530;2023-07-20T15:29:03;3.88;;;1.42;;
19161;SDS011;9713;48.140;11.530;2023-07-20T15:32:47;3.10;;;1.73;;
19161;SDS011;9713;48.140;11.530;2023-07-20T15:36:33;6.60;;;1.90;;
19161;SDS011;9713;48.140;11.530;2023-07-20T15:40:16;3.45;;;2.08;;
19161;SDS011;9713;48.140;11.530;2023-07-20T15:43:59;2.80;;;1.58;;
19161;SDS011;9713;48.140;11.530;2023-07-20T15:47:44;3.80;;;2.13;;
19161;SDS011;9713;48.140;11.530;2023-07-20T15:51:28;9.48;;;1.90;;
19161;SDS011;9713;48.140;11.530;2023-07-20T15:55:11;2.38;;;1.75;;
19161;SDS011;9713;48.140;11.530;2023-07-20T15:58:54;3.25;;;1.92;;
19161;SDS011;9713;48.140;11.530;2023-07-20T16:02:37;7.50;;;3.92;;
19161;SDS011;9713;48.140;11.530;2023-07-20T16:06:21;7.78;;;1.80;;
19161;SDS011;9713;48.140;11.530;2023-07-20T16:10:05;2.63;;;1.80;;
19161;SDS011;9713;48.140;11.530;2023-07-20T16:13:50;5.50;;;2.80;;
19161;SDS011;9713;48.140;11.530;2023-07-20T16:17:34;3.30;;;1.80;;
19161;SDS011;9713;48.140;11.530;2023-07-20T16:21:17;3.78;;;2.35;;
19161;SDS011;9713;48.140;11.530;2023-07-20T16:25:00;3.80;;;2.30;;
19161;SDS011;9713;48.140;11.530;2023-07-20T16:28:45;2.45;;;1.83;;
19161;SDS011;9713;48.140;11.530;2023-07-20T16:32:27;3.33;;;1.92;;
19161;SDS011;9713;48.140;11.530;2023-07-20T16:36:10;9.07;;;3.17;;
19161;SDS011;9713;48.140;11.530;2023-07-20T16:39:56;3.95;;;2.20;;
19161;SDS011;9713;48.140;11.530;2023-07-20T16:43:39;6.15;;;1.70;;
19161;SDS011;9713;48.140;11.530;2023-07-20T16:47:26;4.35;;;2.13;;
19161;SDS011;9713;48.140;11.530;2023-07-20T16:51:12;3.20;;;2.00;;
19161;SDS011;9713;48.140;11.530;2023-07-20T16:54:54;6.07;;;1.95;;
19161;SDS011;9713;48.140;11.530;2023-07-20T16:58:37;4.03;;;1.85;;
19161;SDS011;9713;48.140;11.530;2023-07-20T17:02:20;4.82;;;1.60;;
19161;SDS011;9713;48.140;11.530;2023-07-20T17:06:04;5.35;;;1.70;;
19161;SDS011;9713;48.140;11.530;2023-07-20T17:09:48;2.65;;;1.90;;
19161;SDS011;9713;48.140;11.530;2023-07-20T17:13:31;7.13;;;2.00;;
19161;SDS011;9713;48.140;11.530;2023-07-20T17:17:14;4.05;;;1.67;;
19161;SDS011;9713;48.140;11.530;2023-07-20T17:20:57;2.88;;;1.85;;
19161;SDS011;9713;48.140;11.530;2023-07-20T17:24:41;2.92;;;2.20;;
19161;SDS011;9713;48.140;11.530;2023-07-20T17:28:27;5.13;;;2.15;;
19161;SDS011;9713;48.140;11.530;2023-07-20T17:32:12;2.13;;;1.63;;
19161;SDS011;9713;48.140;11.530;2023-07-20T17:35:55;3.80;;;1.75;;
19161;SDS011;9713;48.140;11.530;2023-07-20T17:39:42;4.35;;;1.85;;
19161;SDS011;9713;48.140;11.530;2023-07-20T17:43:28;2.80;;;1.88;;
19161;SDS011;9713;48.140;11.530;2023-07-20T17:47:11;6.22;;;2.10;;
19161;SDS011;9713;48.140;11.530;2023-07-20T17:50:57;4.40;;;2.58;;
19161;SDS011;9713;48.140;11.530;2023-07-20T17:54:40;4.15;;;2.80;;
19161;SDS011;9713;48.140;11.530;2023-07-20T17:58:24;9.82;;;5.20;;
19161;SDS011;9713;48.140;11.530;2023-07-20T18:02:07;5.55;;;1.75;;
19161;SDS011;9713;48.140;11.530;2023-07-20T18:05:53;5.43;;;2.78;;
19161;SDS011;9713;48.140;11.530;2023-07-20T18:09:39;5.43;;;2.08;;
19161;SDS011;9713;48.140;11.530;2023-07-20T18:13:24;4.43;;;2.60;;
19161;SDS011;9713;48.140;11.530;2023-07-20T18:17:06;3.20;;;2.03;;
19161;SDS011;9713;48.140;11.530;2023-07-20T18:20:49;4.13;;;1.85;;
19161;SDS011;9713;48.140;11.530;2023-07-20T18:24:32;6.22;;;2.20;;
19161;SDS011;9713;48.140;11.530;2023-07-20T18:28:15;5.03;;;2.05;;
19161;SDS011;9713;48.140;11.530;2023-07-20T18:31:59;5.43;;;2.30;;
19161;SDS011;9713;48.140;11.530;2023-07-20T18:35:42;3.90;;;2.17;;
19161;SDS011;9713;48.140;11.530;2023-07-20T18:39:25;4.78;;;2.00;;
19161;SDS011;9713;48.140;11.530;2023-07-20T18:43:08;5.05;;;2.20;;
19161;SDS011;9713;48.140;11.530;2023-07-20T18:46:51;5.68;;;3.03;;
19161;SDS011;9713;48.140;11.530;2023-07-20T18:50:35;6.25;;;3.05;;
19161;SDS011;9713;48.140;11.530;2023-07-20T18:54:18;8.18;;;4.20;;
19161;SDS011;9713;48.140;11.530;2023-07-20T18:58:03;7.55;;;3.83;;
19161;SDS011;9713;48.140;11.530;2023-07-20T19:01:46;5.70;;;3.05;;
19161;SDS011;9713;48.140;11.530;2023-07-20T19:05:29;4.47;;;2.75;;
19161;SDS011;9713;48.140;11.530;2023-07-20T19:09:14;7.35;;;3.88;;
19161;SDS011;9713;48.140;11.530;2023-07-20T19:12:56;5.03;;;3.22;;
19161;SDS011;9713;48.140;11.530;2023-07-20T19:16:39;6.63;;;3.92;;
19161;SDS011;9713;48.140;11.530;2023-07-20T19:20:25;5.53;;;2.67;;
19161;SDS011;9713;48.140;11.530;2023-07-20T19:24:08;11.38;;;6.05;;
19161;SDS011;9713;48.140;11.530;2023-07-20T19:27:52;9.00;;;5.28;;
19161;SDS011;9713;48.140;11.530;2023-07-20T19:31:35;7.55;;;5.22;;
19161;SDS011;9713;48.140;11.530;2023-07-20T19:35:17;6.80;;;4.18;;
19161;SDS011;9713;48.140;11.530;2023-07-20T19:39:00;5.50;;;3.00;;
19161;SDS011;9713;48.140;11.530;2023-07-20T19:42:43;4.03;;;2.95;;
19161;SDS011;9713;48.140;11.530;2023-07-20T19:46:29;7.63;;;4.57;;
19161;SDS011;9713;48.140;11.530;2023-07-20T19:50:12;7.63;;;3.00;;
19161;SDS011;9713;48.140;11.530;2023-07-20T19:53:55;3.42;;;2.55;;
19161;SDS011;9713;48.140;11.530;2023-07-20T19:57:41;8.13;;;3.13;;
19161;SDS011;9713;48.140;11.530;2023-07-20T20:01:24;6.25;;;2.80;;
19161;SDS011;9713;48.140;11.530;2023-07-20T20:05:11;4.45;;;2.28;;
19161;SDS011;9713;48.140;11.530;2023-07-20T20:08:56;3.53;;;2.40;;
19161;SDS011;9713;48.140;11.530;2023-07-20T20:12:39;2.83;;;2.08;;
19161;SDS011;9713;48.140;11.530;2023-07-20T20:16:21;6.35;;;2.70;;
19161;SDS011;9713;48.140;11.530;2023-07-20T20:20:05;7.50;;;2.78;;
19161;SDS011;9713;48.140;11.530;2023-07-20T20:23:50;17.40;;;9.38;;
19161;SDS011;9713;48.140;11.530;2023-07-20T20:27:33;18.70;;;9.93;;
19161;SDS011;9713;48.140;11.530;2023-07-20T20:31:16;10.50;;;5.80;;
19161;SDS011;9713;48.140;11.530;2023-07-20T20:34:59;8.27;;;4.15;;
19161;SDS011;9713;48.140;11.530;2023-07-20T20:38:42;5.93;;;3.63;;
19161;SDS011;9713;48.140;11.530;2023-07-20T20:42:29;6.45;;;3.78;;
19161;SDS011;9713;48.140;11.530;2023-07-20T20:46:11;6.82;;;3.42;;
19161;SDS011;9713;48.140;11.530;2023-07-20T20:50:01;4.97;;;3.05;;
19161;SDS011;9713;48.140;11.530;2023-07-20T20:53:44;6.32;;;3.75;;
19161;SDS011;9713;48.140;11.530;2023-07-20T20:57:28;6.45;;;3.58;;
19161;SDS011;9713;48.140;11.530;2023-07-20T21:01:11;7.10;;;3.28;;
19161;SDS011;9713;48.140;11.530;2023-07-20T21:04:54;4.13;;;2.92;;
19161;SDS011;9713;48.140;11.530;2023-07-20T21:08:37;5.93;;;2.88;;
19161;SDS011;9713;48.140;11.530;2023-07-20T21:12:20;4.75;;;3.35;;
19161;SDS011;9713;48.140;11.530;2023-07-20T21:16:04;8.43;;;4.90;;
19161;SDS011;9713;48.140;11.530;2023-07-20T21:19:47;7.10;;;4.55;;
19161;SDS011;9713;48.140;11.530;2023-07-20T21:23:30;10.65;;;4.32;;
19161;SDS011;9713;48.140;11.530;2023-07-20T21:27:13;5.55;;;3.80;;
19161;SDS011;9713;48.140;11.530;2023-07-20T21:30:59;7.57;;;4.60;;
19161;SDS011;9713;48.140;11.530;2023-07-20T21:34:45;6.93;;;3.33;;
19161;SDS011;9713;48.140;11.530;2023-07-20T21:38:28;8.90;;;4.03;;
19161;SDS011;9713;48.140;11.530;2023-07-20T21:42:11;16.25;;;5.28;;
19161;SDS011;9713;48.140;11.530;2023-07-20T21:45:54;12.35;;;4.38;;
19161;SDS011;9713;48.140;11.530;2023-07-20T21:49:38;11.75;;;3.97;;
19161;SDS011;9713;48.140;11.530;2023-07-20T21:53:23;10.93;;;4.00;;
19161;SDS011;9713;48.140;11.530;2023-07-20T21:57:06;5.63;;;3.90;;
19161;SDS011;9713;48.140;11.530;2023-07-20T22:00:49;5.70;;;3.60;;
19161;SDS011;9713;48.140;11.530;2023-07-20T22:04:36;5.65;;;4.03;;
19161;SDS011;9713;48.140;11.530;2023-07-20T22:08:22;7.15;;;4.45;;
19161;SDS011;9713;48.140;11.530;2023-07-20T22:12:05;8.98;;;3.90;;
19161;SDS011;9713;48.140;11.530;2023-07-20T22:15:49;8.95;;;3.97;;
19161;SDS011;9713;48.140;11.530;2023-07-20T22:19:32;8.43;;;4.22;;
19161;SDS011;9713;48.140;11.530;2023-07-20T22:23:15;5.53;;;4.18;;
19161;SDS011;9713;48.140;11.530;2023-07-20T22:26:59;7.40;;;4.68;;
19161;SDS011;9713;48.140;11.530;2023-07-20T22:30:43;10.88;;;4.60;;
19161;SDS011;9713;48.140;11.530;2023-07-20T22:34:26;9.15;;;4.70;;